Home   Weather   Latvia   Jelgava   Past weeks
Flag for Latvia

Past Weather in Jelgava, Latvia — Yesterday and Last 2 Weeks

Currently: 37 °F. Sprinkles. Overcast. (Weather station: Riga Airport, Latvia). See more current weather

Past Weather in Jelgava — Graph

°F

Jelgava Temperature Yesterday

Maximum temperature yesterday: 52 °F (at 12:20 pm)
Minimum temperature yesterday: 37 °F (at 5:50 am)
Average temperature yesterday: 44 °F

High & Low Weather Summary for the Past Weeks

 TemperatureHumidityPressure
High66 °F (Apr 18, 2:50 pm)100% (Apr 8, 3:50 am)30.24 "Hg (Apr 8, 3:50 am)
Low23 °F (Apr 11, 3:20 am)19% (Apr 18, 6:50 pm)29.50 "Hg (Apr 8, 2:20 am)
Average47 °F57%30.01 "Hg
* Reported Apr 8 1:20 am — Apr 23 1:20 am, Jelgava. Weather by CustomWeather, © 2021

Note: Actual official high and low records may vary slightly from our data, if they occured in-between our weather recording intervals... More about our weather records

Jelgava Weather History for the Previous 24 Hours

Scroll right to see more
 ConditionsComfort  
Time TempWeatherWind HumidityBarometerVisibility
1:20 am
Fri, Apr 23
37 °FSprinkles. Overcast.10 mph81%29.68 "HgN/A
12:50 am39 °FSprinkles. Mostly cloudy.13 mph75%29.68 "HgN/A
12:20 am39 °FSprinkles. Mostly cloudy.14 mph75%29.68 "HgN/A
11:50 pm
Thu, Apr 22
41 °FMostly cloudy.15 mph70%29.68 "HgN/A
11:20 pm41 °FMostly cloudy.14 mph70%29.68 "HgN/A
10:50 pm41 °FPassing clouds.15 mph70%29.71 "HgN/A
10:20 pm41 °FPassing clouds.14 mph70%29.71 "HgN/A
9:50 pm41 °FPassing clouds.10 mph70%29.71 "HgN/A
9:20 pm41 °FPassing clouds.13 mph70%29.71 "HgN/A
8:50 pm41 °FPassing clouds.13 mph70%29.71 "HgN/A
8:20 pm43 °FScattered clouds.12 mph71%29.68 "HgN/A
7:50 pm45 °FScattered clouds.14 mph61%29.68 "HgN/A
7:20 pm46 °FPartly sunny.13 mph62%29.68 "HgN/A
6:50 pm45 °FSprinkles. Broken clouds.16 mph66%29.68 "HgN/A
6:20 pm46 °FScattered clouds.14 mph57%29.68 "HgN/A
5:50 pm46 °FScattered showers. Broken clouds.20 mph57%29.68 "HgN/A
5:20 pm48 °FPartly sunny.18 mph54%29.68 "HgN/A
4:50 pm50 °FScattered clouds.17 mph50%29.65 "HgN/A
4:20 pm48 °FScattered clouds.18 mph50%29.68 "HgN/A
3:50 pm48 °FPassing clouds.17 mph62%29.68 "HgN/A
3:20 pm46 °FBroken clouds.21 mph62%29.68 "HgN/A
2:50 pm46 °FSprinkles. Partly sunny.14 mph66%29.68 "HgN/A
2:20 pm52 °FScattered showers. Passing clouds.17 mph44%29.65 "HgN/A
1:50 pm50 °FScattered clouds.17 mph40%29.65 "HgN/A
1:20 pm52 °FPassing clouds.20 mph41%29.65 "HgN/A
12:50 pm48 °FPassing clouds.12 mph50%29.65 "HgN/A
12:20 pm52 °FPassing clouds.21 mph35%29.65 "HgN/A
11:50 am50 °FPartly sunny.20 mph40%29.65 "HgN/A
11:20 am48 °FPartly sunny.17 mph43%29.65 "HgN/A
10:50 am46 °FPartly sunny.15 mph57%29.68 "HgN/A
10:20 am48 °FPartly sunny.15 mph54%29.65 "HgN/A
9:50 am46 °FScattered clouds.13 mph62%29.65 "HgN/A
9:20 am46 °FPassing clouds.10 mph62%29.65 "HgN/A
8:50 am45 °FPassing clouds.12 mph71%29.65 "HgN/A
8:20 am43 °FPassing clouds.9 mph76%29.65 "HgN/A
7:50 am41 °FSunny.9 mph81%29.68 "Hg10 mi
7:20 am41 °FSunny.10 mph81%29.65 "Hg10 mi
6:50 am39 °FSunny.8 mph81%29.65 "Hg10 mi
6:20 am37 °FSunny.9 mph87%29.65 "Hg10 mi
5:50 am37 °FClear.8 mph87%29.65 "Hg10 mi
5:20 am39 °FClear.8 mph81%29.65 "Hg10 mi
4:50 am39 °FClear.9 mph81%29.65 "Hg10 mi
4:20 am39 °FClear.9 mph81%29.65 "Hg10 mi
3:50 am39 °FClear.9 mph81%29.65 "Hg10 mi
3:20 am41 °FClear.8 mph76%29.65 "Hg10 mi
2:50 am41 °FClear.7 mph76%29.65 "Hg10 mi
2:20 am43 °FClear.10 mph71%29.65 "Hg10 mi
Weather by CustomWeather, © 2021

See weather overview